Time;durP1;ratioP1;P1;durP2;ratioP2;P2;SDS_P1;SDS_P2;PMS_P1;PMS_P2;Temp;Humidity;BMP_temperature;BMP_pressure;BME280_temperature;BME280_humidity;BME280_pressure;Samples;Min_cycle;Max_cycle;Signal;HPM_P1;HPM_P2
2022/10/23 00:00:50;;;;;;;2.37;1.90;;;9.20;99.90;;;;;;4194637;28;20674;-68
2022/10/23 00:02:52;;;;;;;2.97;2.00;;;9.20;99.90;;;;;;4194965;28;20270;-68
2022/10/23 00:04:53;;;;;;;3.73;2.00;;;9.20;99.90;;;;;;4195215;28;20183;-68
2022/10/23 00:06:53;;;;;;;6.63;2.00;;;9.20;99.90;;;;;;4194893;28;20286;-67
2022/10/23 00:08:55;;;;;;;3.23;2.30;;;9.10;99.90;;;;;;4195148;28;20533;-67
2022/10/23 00:10:55;;;;;;;3.27;2.07;;;9.10;99.90;;;;;;4194317;28;20221;-68
2022/10/23 00:12:56;;;;;;;2.70;1.93;;;9.10;99.90;;;;;;4194501;28;20226;-67
2022/10/23 00:14:56;;;;;;;3.77;2.33;;;9.10;99.90;;;;;;4194747;28;20178;-67
2022/10/23 00:16:57;;;;;;;6.83;2.37;;;9.00;99.90;;;;;;4194714;28;20212;-68
2022/10/23 00:18:57;;;;;;;5.20;2.10;;;9.10;99.90;;;;;;4194943;28;20194;-67
2022/10/23 00:20:58;;;;;;;3.33;2.10;;;9.10;99.90;;;;;;4194202;28;20249;-67
2022/10/23 00:22:59;;;;;;;6.47;2.23;;;9.10;99.90;;;;;;4194757;28;20190;-67
2022/10/23 00:24:59;;;;;;;3.87;2.30;;;9.10;99.90;;;;;;4195114;28;20558;-67
2022/10/23 00:27:00;;;;;;;4.00;2.30;;;9.20;99.90;;;;;;4194967;28;20204;-68
2022/10/23 00:29:00;;;;;;;4.33;2.00;;;9.00;99.90;;;;;;4194915;28;20785;-68
2022/10/23 00:31:02;;;;;;;4.13;2.23;;;9.00;99.90;;;;;;4194294;28;20237;-68
2022/10/23 00:33:03;;;;;;;3.40;1.80;;;9.00;99.90;;;;;;4194875;28;20218;-67
2022/10/23 00:35:04;;;;;;;4.93;2.40;;;9.10;99.90;;;;;;4194551;28;20184;-68
2022/10/23 00:37:05;;;;;;;5.60;1.90;;;9.20;99.90;;;;;;4194854;28;20211;-67
2022/10/23 00:39:05;;;;;;;4.60;2.20;;;9.20;99.90;;;;;;4194709;28;20234;-67
2022/10/23 00:41:07;;;;;;;3.10;2.20;;;9.20;99.90;;;;;;4196020;28;20275;-68
2022/10/23 00:43:17;;;;;;;4.93;1.63;;;9.20;99.90;;;;;;4197715;28;20187;-68
2022/10/23 00:45:26;;;;;;;4.07;1.97;;;9.30;99.90;;;;;;4197581;28;20194;-67
2022/10/23 00:47:27;;;;;;;2.70;1.70;;;9.40;99.90;;;;;;4197532;28;20802;-67
2022/10/23 00:49:27;;;;;;;6.13;1.87;;;9.40;99.90;;;;;;4197810;28;20184;-67
2022/10/23 00:51:33;;;;;;;2.27;1.73;;;9.40;99.90;;;;;;4196872;28;20183;-67
2022/10/23 00:53:33;;;;;;;4.40;1.97;;;9.40;99.90;;;;;;4197748;28;20233;-67
2022/10/23 00:55:37;;;;;;;3.00;1.70;;;9.30;99.90;;;;;;4197237;28;20591;-68
2022/10/23 00:57:41;;;;;;;2.50;1.60;;;9.20;99.90;;;;;;4197898;28;20212;-68
2022/10/23 00:59:42;;;;;;;3.53;1.80;;;9.20;99.90;;;;;;4197340;28;20190;-67
2022/10/23 01:01:43;;;;;;;2.23;1.63;;;9.20;99.90;;;;;;4196850;28;21043;-68
2022/10/23 01:03:43;;;;;;;3.90;1.97;;;9.20;99.90;;;;;;4197502;28;20180;-67
2022/10/23 01:05:53;;;;;;;5.97;1.70;;;9.10;99.90;;;;;;4197491;28;20195;-67
2022/10/23 01:08:00;;;;;;;3.83;1.70;;;9.10;99.90;;;;;;4197480;28;20179;-67
2022/10/23 01:10:17;;;;;;;2.53;1.40;;;9.20;99.90;;;;;;4197540;28;20183;-67
2022/10/23 01:12:42;;;;;;;3.07;1.43;;;9.20;99.90;;;;;;4197363;28;20204;-67
2022/10/23 01:15:06;;;;;;;4.17;1.40;;;9.20;99.90;;;;;;4197439;28;20188;-67
2022/10/23 01:17:18;;;;;;;2.60;1.50;;;9.20;99.90;;;;;;4197202;28;20208;-67
2022/10/23 01:19:32;;;;;;;3.57;1.60;;;9.20;99.90;;;;;;4197392;28;20211;-68
2022/10/23 01:22:03;;;;;;;2.53;1.53;;;9.30;99.90;;;;;;4196516;28;20207;-68
2022/10/23 01:24:07;;;;;;;1.57;1.40;;;9.30;99.90;;;;;;4197126;28;20835;-67
2022/10/23 01:26:20;;;;;;;2.77;1.40;;;9.30;99.90;;;;;;4196985;28;20180;-67
2022/10/23 01:28:35;;;;;;;4.77;1.30;;;9.30;99.90;;;;;;4196976;28;20187;-67
2022/10/23 01:30:39;;;;;;;3.67;1.40;;;9.40;99.90;;;;;;4196143;28;20186;-67
2022/10/23 01:32:51;;;;;;;3.07;1.57;;;9.30;99.90;;;;;;4195153;28;20770;-67
2022/10/23 01:35:01;;;;;;;3.27;1.30;;;9.30;99.90;;;;;;4180189;28;20188;-68
2022/10/23 01:37:02;;;;;;;2.87;1.57;;;9.20;99.90;;;;;;4180236;28;20208;-67
2022/10/23 01:39:26;;;;;;;3.77;1.27;;;9.20;99.90;;;;;;4179961;28;20199;-67
2022/10/23 01:41:36;;;;;;;2.17;1.40;;;9.10;99.90;;;;;;4179427;28;20888;-67
2022/10/23 01:43:44;;;;;;;2.00;1.30;;;9.10;99.90;;;;;;4180068;28;20208;-67
2022/10/23 01:46:01;;;;;;;2.93;1.60;;;9.10;99.90;;;;;;4179726;28;20183;-67
2022/10/23 01:48:04;;;;;;;3.40;1.30;;;9.10;99.90;;;;;;4179841;28;20242;-67
2022/10/23 01:50:06;;;;;;;2.50;1.40;;;9.20;99.90;;;;;;4179787;28;20254;-67
2022/10/23 01:52:10;;;;;;;1.60;1.23;;;9.20;99.90;;;;;;4178849;28;20188;-67
2022/10/23 01:54:13;;;;;;;3.30;1.20;;;9.20;99.90;;;;;;4180102;28;20706;-67
2022/10/23 01:56:20;;;;;;;2.07;1.37;;;9.20;99.90;;;;;;4179904;28;20215;-67
2022/10/23 01:58:24;;;;;;;4.50;1.30;;;9.30;99.90;;;;;;4180284;28;20191;-67
2022/10/23 02:00:25;;;;;;;2.50;1.37;;;9.40;99.90;;;;;;4179370;28;20228;-66
2022/10/23 02:02:26;;;;;;;2.83;1.33;;;9.40;99.90;;;;;;4179868;28;20257;-66
2022/10/23 02:04:39;;;;;;;1.20;1.10;;;9.50;99.90;;;;;;4180100;28;20245;-67
2022/10/23 02:06:40;;;;;;;3.87;1.27;;;9.50;99.90;;;;;;4179931;28;20196;-67
2022/10/23 02:08:41;;;;;;;1.70;1.23;;;9.40;99.90;;;;;;4179959;28;20195;-67
2022/10/23 02:11:08;;;;;;;1.27;1.00;;;9.40;99.90;;;;;;4179293;28;20200;-66
2022/10/23 02:13:33;;;;;;;2.13;1.20;;;9.40;99.90;;;;;;4179533;28;20259;-67
2022/10/23 02:15:47;;;;;;;1.23;1.10;;;9.40;99.90;;;;;;4179529;28;20188;-66
2022/10/23 02:18:09;;;;;;;1.53;1.20;;;9.40;99.90;;;;;;4179437;28;20253;-66
2022/10/23 02:20:16;;;;;;;1.87;1.10;;;9.40;99.90;;;;;;4179384;28;20216;-67
2022/10/23 02:22:33;;;;;;;2.83;1.20;;;9.30;99.90;;;;;;4179495;28;20185;-67
2022/10/23 02:24:41;;;;;;;1.50;1.30;;;9.30;99.90;;;;;;4179802;28;20184;-68
2022/10/23 02:26:54;;;;;;;3.00;1.47;;;9.20;99.90;;;;;;4179622;28;20257;-67
2022/10/23 02:29:04;;;;;;;1.00;0.90;;;9.30;99.90;;;;;;4179477;28;20228;-67
2022/10/23 02:31:09;;;;;;;1.50;1.20;;;9.30;99.90;;;;;;4179077;28;20655;-67
2022/10/23 02:33:12;;;;;;;2.30;1.17;;;9.40;99.90;;;;;;4179437;28;20804;-67
2022/10/23 02:35:12;;;;;;;1.93;1.20;;;9.40;99.90;;;;;;4179414;28;20188;-67
2022/10/23 02:37:13;;;;;;;2.07;1.23;;;9.40;99.90;;;;;;4179370;28;20219;-67
2022/10/23 02:39:14;;;;;;;2.80;1.20;;;9.40;99.90;;;;;;4179298;28;20302;-67
2022/10/23 02:41:18;;;;;;;2.50;1.00;;;9.40;99.90;;;;;;4178471;28;20239;-67
2022/10/23 02:43:26;;;;;;;4.03;1.20;;;9.40;99.90;;;;;;4179250;28;20180;-67
2022/10/23 02:45:40;;;;;;;4.03;1.20;;;9.40;99.90;;;;;;4179003;28;20178;-67
2022/10/23 02:47:52;;;;;;;2.20;1.13;;;9.30;99.90;;;;;;4179059;28;20207;-67
2022/10/23 02:50:16;;;;;;;2.10;1.17;;;9.20;99.90;;;;;;4179633;28;20186;-67
2022/10/23 02:52:36;;;;;;;1.77;1.53;;;9.20;99.90;;;;;;4190574;28;20192;-67
2022/10/23 02:54:54;;;;;;;1.80;1.07;;;9.20;99.90;;;;;;4195422;28;20183;-66
2022/10/23 02:57:10;;;;;;;4.77;1.23;;;9.10;99.90;;;;;;4194142;28;20246;-66
2022/10/23 02:59:21;;;;;;;1.20;1.10;;;9.10;99.90;;;;;;4195512;28;20266;-66
2022/10/23 03:01:27;;;;;;;1.30;1.20;;;9.00;99.90;;;;;;4194768;28;20293;-66
2022/10/23 03:03:36;;;;;;;2.13;1.20;;;9.00;99.90;;;;;;4194833;28;20192;-66
2022/10/23 03:05:39;;;;;;;2.40;1.00;;;9.00;99.90;;;;;;4194570;28;20183;-65
2022/10/23 03:07:40;;;;;;;1.07;0.93;;;9.00;99.90;;;;;;4194750;28;20221;-67
2022/10/23 03:09:40;;;;;;;2.83;1.10;;;9.00;99.90;;;;;;4195043;28;20550;-67
2022/10/23 03:11:41;;;;;;;2.77;1.20;;;8.90;99.90;;;;;;4194517;28;20180;-67
2022/10/23 03:13:41;;;;;;;1.43;1.20;;;9.00;99.90;;;;;;4195101;28;20223;-68
2022/10/23 03:15:42;;;;;;;1.60;0.80;;;9.00;99.90;;;;;;4195325;28;20186;-67
2022/10/23 03:17:43;;;;;;;1.00;0.87;;;9.00;99.90;;;;;;4194992;28;20199;-67
2022/10/23 03:19:43;;;;;;;2.73;1.20;;;9.00;99.90;;;;;;4194981;28;20187;-67
2022/10/23 03:21:44;;;;;;;1.23;1.10;;;9.00;99.90;;;;;;4194382;28;20185;-67
2022/10/23 03:23:44;;;;;;;2.70;1.07;;;8.90;99.90;;;;;;4195305;28;20631;-68
2022/10/23 03:25:45;;;;;;;1.80;0.80;;;8.90;99.90;;;;;;4194773;28;20748;-67
2022/10/23 03:27:45;;;;;;;2.77;1.10;;;8.90;99.90;;;;;;4194960;28;20203;-67
2022/10/23 03:29:46;;;;;;;2.50;1.20;;;8.90;99.90;;;;;;4191884;28;20328;-67
2022/10/23 03:31:46;;;;;;;1.10;1.00;;;8.90;99.90;;;;;;4180060;28;20685;-68
2022/10/23 03:33:47;;;;;;;3.27;0.97;;;8.90;99.90;;;;;;4178613;28;20201;-67
2022/10/23 03:35:48;;;;;;;1.87;1.17;;;8.90;99.90;;;;;;4178485;28;20230;-67
2022/10/23 03:37:49;;;;;;;2.53;1.10;;;8.90;99.90;;;;;;4178597;28;20199;-67
2022/10/23 03:39:49;;;;;;;1.20;1.07;;;8.80;99.90;;;;;;4178496;28;20338;-67
2022/10/23 03:41:50;;;;;;;0.90;0.80;;;8.90;99.90;;;;;;4177869;28;20658;-68
2022/10/23 03:43:50;;;;;;;1.23;0.90;;;8.90;99.90;;;;;;4178260;28;20692;-67
2022/10/23 03:45:51;;;;;;;2.50;0.90;;;8.90;99.90;;;;;;4178237;28;20219;-67
2022/10/23 03:47:51;;;;;;;3.00;1.00;;;9.00;99.90;;;;;;4178418;28;20219;-67
2022/10/23 03:49:52;;;;;;;3.93;1.07;;;9.00;99.90;;;;;;4178300;28;20249;-67
2022/10/23 03:51:53;;;;;;;1.23;1.00;;;8.90;99.90;;;;;;4177692;28;20187;-67
2022/10/23 03:53:53;;;;;;;2.50;1.10;;;8.90;99.90;;;;;;4178578;28;20608;-67
2022/10/23 03:55:54;;;;;;;1.20;1.07;;;8.90;99.90;;;;;;4178293;28;20242;-68
2022/10/23 03:57:54;;;;;;;2.87;1.03;;;8.90;99.90;;;;;;4178555;28;20248;-67
2022/10/23 03:59:55;;;;;;;1.00;0.90;;;8.90;99.90;;;;;;4177809;28;20244;-67
2022/10/23 04:01:55;;;;;;;4.77;1.00;;;8.90;99.90;;;;;;4189475;28;20604;-67
2022/10/23 04:03:56;;;;;;;0.80;0.80;;;8.90;99.90;;;;;;4194833;28;20206;-67
2022/10/23 04:05:56;;;;;;;1.30;0.87;;;8.90;99.90;;;;;;4194638;28;20183;-67
2022/10/23 04:07:57;;;;;;;2.27;1.00;;;8.90;99.90;;;;;;4194937;28;20215;-68
2022/10/23 04:09:57;;;;;;;4.83;1.47;;;8.90;99.90;;;;;;4194633;28;20172;-67
2022/10/23 04:11:58;;;;;;;2.07;0.80;;;8.80;99.90;;;;;;4194000;28;20553;-67
2022/10/23 04:13:59;;;;;;;2.17;1.13;;;8.80;99.90;;;;;;4194763;28;20658;-67
2022/10/23 04:15:59;;;;;;;1.70;1.03;;;8.80;99.90;;;;;;4196714;28;20552;-67
2022/10/23 04:18:00;;;;;;;3.10;1.27;;;8.80;99.90;;;;;;4198168;28;20290;-67
2022/10/23 04:20:00;;;;;;;1.40;1.30;;;8.70;99.90;;;;;;4197799;28;20217;-67
2022/10/23 04:22:01;;;;;;;2.30;1.57;;;8.60;99.90;;;;;;4197385;28;20642;-67
2022/10/23 04:24:01;;;;;;;3.30;1.33;;;8.60;99.90;;;;;;4198148;28;20270;-68
2022/10/23 04:26:02;;;;;;;5.50;1.37;;;8.50;99.90;;;;;;4197747;28;20191;-68
2022/10/23 04:28:03;;;;;;;1.87;1.10;;;8.50;99.90;;;;;;4198153;28;20178;-67
2022/10/23 04:30:04;;;;;;;2.30;1.47;;;8.60;99.90;;;;;;4197715;28;20181;-68
2022/10/23 04:32:06;;;;;;;3.23;1.00;;;8.60;99.90;;;;;;4197200;28;20218;-67
2022/10/23 04:34:07;;;;;;;4.50;1.17;;;8.50;99.90;;;;;;4197984;28;20210;-68
2022/10/23 04:36:08;;;;;;;2.70;0.93;;;8.60;99.90;;;;;;4198060;28;20186;-67
2022/10/23 04:38:09;;;;;;;1.87;0.90;;;8.60;99.90;;;;;;4198297;28;20222;-66
2022/10/23 04:40:10;;;;;;;2.43;1.10;;;8.60;99.90;;;;;;4198139;28;20211;-66
2022/10/23 04:42:10;;;;;;;1.63;1.20;;;8.70;99.90;;;;;;4197675;28;20197;-66
2022/10/23 04:44:11;;;;;;;3.43;1.00;;;8.60;99.90;;;;;;4197783;28;20182;-66
2022/10/23 04:46:11;;;;;;;2.03;0.90;;;8.60;99.90;;;;;;4197666;28;20297;-67
2022/10/23 04:48:12;;;;;;;1.30;1.20;;;8.60;99.90;;;;;;4197990;28;20264;-67
2022/10/23 04:50:12;;;;;;;1.37;1.10;;;8.60;99.90;;;;;;4197267;28;20185;-67
2022/10/23 04:52:13;;;;;;;1.93;1.23;;;8.50;99.90;;;;;;4197821;28;20186;-66
2022/10/23 04:54:14;;;;;;;2.60;1.43;;;8.50;99.90;;;;;;4197924;28;20784;-67
2022/10/23 04:56:15;;;;;;;2.83;1.23;;;8.60;99.90;;;;;;4197804;28;20195;-67
2022/10/23 04:58:15;;;;;;;3.80;1.70;;;8.60;99.90;;;;;;4197638;28;20751;-67
2022/10/23 05:00:17;;;;;;;4.40;2.77;;;8.60;99.90;;;;;;4192130;28;20262;-67
2022/10/23 05:02:18;;;;;;;7.43;3.13;;;8.70;99.90;;;;;;4181609;28;20206;-67
2022/10/23 05:04:18;;;;;;;2.17;1.50;;;8.80;99.90;;;;;;4193257;28;20178;-67
2022/10/23 05:06:19;;;;;;;4.60;1.77;;;8.90;99.90;;;;;;4197771;28;20203;-67
2022/10/23 05:08:21;;;;;;;2.77;1.60;;;8.90;99.90;;;;;;4197737;28;20266;-67
2022/10/23 05:10:22;;;;;;;3.77;1.90;;;8.90;99.90;;;;;;4197041;28;20270;-67
2022/10/23 05:12:24;;;;;;;3.10;2.07;;;9.00;99.90;;;;;;4197159;28;20201;-67
2022/10/23 05:14:24;;;;;;;3.07;2.10;;;9.00;99.90;;;;;;4197293;28;20572;-67
2022/10/23 05:16:36;;;;;;;2.80;1.60;;;9.00;99.90;;;;;;4197423;28;20248;-67
2022/10/23 05:18:43;;;;;;;3.60;2.10;;;9.00;99.90;;;;;;4197334;28;20187;-67
2022/10/23 05:20:44;;;;;;;5.60;2.70;;;9.00;99.90;;;;;;4195040;28;20208;-67
2022/10/23 05:22:47;;;;;;;4.43;2.60;;;8.90;99.90;;;;;;4197063;28;20203;-67
2022/10/23 05:24:48;;;;;;;5.80;2.03;;;8.80;99.90;;;;;;4196569;28;20176;-67
2022/10/23 05:26:51;;;;;;;4.30;3.00;;;8.80;99.90;;;;;;4190413;28;20286;-67
2022/10/23 05:28:52;;;;;;;4.87;3.30;;;8.70;99.90;;;;;;4180554;28;20213;-67
2022/10/23 05:30:53;;;;;;;6.37;3.70;;;8.60;99.90;;;;;;4179649;28;20176;-67
2022/10/23 05:32:53;;;;;;;4.77;3.30;;;8.60;99.90;;;;;;4180361;28;20179;-67
2022/10/23 05:34:54;;;;;;;4.40;3.17;;;8.60;99.90;;;;;;4180254;28;20186;-67
2022/10/23 05:36:55;;;;;;;3.47;2.77;;;8.60;99.90;;;;;;4180148;28;20200;-67
2022/10/23 05:38:57;;;;;;;4.60;3.00;;;8.60;99.90;;;;;;4180159;28;20191;-67
2022/10/23 05:40:57;;;;;;;4.73;2.87;;;8.50;99.90;;;;;;4179459;28;20223;-67
2022/10/23 05:42:58;;;;;;;5.33;2.43;;;8.50;99.90;;;;;;4180281;28;20184;-67
2022/10/23 05:44:58;;;;;;;3.50;2.67;;;8.40;99.90;;;;;;4180204;28;20165;-67
2022/10/23 05:46:59;;;;;;;4.97;2.70;;;8.40;99.90;;;;;;4180018;28;20199;-67
2022/10/23 05:48:59;;;;;;;6.43;2.73;;;8.30;99.90;;;;;;4180275;28;20183;-67
2022/10/23 05:51:04;;;;;;;3.43;2.63;;;8.30;99.90;;;;;;4179673;28;20215;-67
2022/10/23 05:53:05;;;;;;;5.87;2.13;;;8.30;99.90;;;;;;4179945;28;20180;-67
2022/10/23 05:55:06;;;;;;;2.40;2.10;;;8.30;99.90;;;;;;4179955;28;20559;-67
2022/10/23 05:57:06;;;;;;;5.53;2.07;;;8.20;99.90;;;;;;4178744;28;20204;-67
2022/10/23 05:59:08;;;;;;;3.20;2.00;;;8.20;99.90;;;;;;4178491;28;20949;-67
2022/10/23 06:01:10;;;;;;;3.90;1.90;;;8.30;99.90;;;;;;4179307;28;20211;-67
2022/10/23 06:03:11;;;;;;;4.67;2.57;;;8.30;99.90;;;;;;4179892;28;20272;-66
2022/10/23 06:05:11;;;;;;;2.40;1.97;;;8.30;99.90;;;;;;4179738;28;20642;-66
2022/10/23 06:07:12;;;;;;;3.70;1.93;;;8.30;99.90;;;;;;4179973;28;20204;-66
2022/10/23 06:09:14;;;;;;;2.83;1.97;;;8.20;99.90;;;;;;4179777;28;20186;-66
2022/10/23 06:11:14;;;;;;;2.97;1.83;;;8.20;99.90;;;;;;4179387;28;20184;-66
2022/10/23 06:13:15;;;;;;;4.87;2.63;;;8.20;99.90;;;;;;4179425;28;20257;-66
2022/10/23 06:15:16;;;;;;;4.70;2.90;;;8.30;99.90;;;;;;4179729;28;20266;-65
2022/10/23 06:17:16;;;;;;;8.23;3.00;;;8.30;99.90;;;;;;4179832;28;20680;-67
2022/10/23 06:19:17;;;;;;;3.10;2.43;;;8.20;99.90;;;;;;4179711;28;20760;-66
2022/10/23 06:21:18;;;;;;;3.33;2.10;;;8.20;99.90;;;;;;4194122;28;20721;-66
2022/10/23 06:23:18;;;;;;;2.83;1.90;;;8.20;99.90;;;;;;4179643;28;20657;-67
2022/10/23 06:25:19;;;;;;;3.83;2.03;;;8.20;99.90;;;;;;4179420;28;20265;-67
2022/10/23 06:27:19;;;;;;;2.27;1.77;;;8.30;99.90;;;;;;4179445;28;20681;-67
2022/10/23 06:29:20;;;;;;;3.93;2.07;;;8.30;99.90;;;;;;4179286;28;20180;-66
2022/10/23 06:31:25;;;;;;;2.63;2.20;;;8.30;99.90;;;;;;4178893;28;20176;-67
2022/10/23 06:33:26;;;;;;;2.20;1.80;;;8.40;99.90;;;;;;4179508;28;20681;-66
2022/10/23 06:35:26;;;;;;;1.93;1.60;;;8.50;99.90;;;;;;4179444;28;20267;-66
2022/10/23 06:37:27;;;;;;;3.33;2.40;;;8.50;99.90;;;;;;4179773;28;20200;-66
2022/10/23 06:39:27;;;;;;;2.20;2.00;;;8.60;99.90;;;;;;4179512;28;20239;-67
2022/10/23 06:41:28;;;;;;;3.70;2.73;;;8.60;99.90;;;;;;4178728;28;20242;-67
2022/10/23 06:43:28;;;;;;;5.77;3.00;;;8.50;99.90;;;;;;4179249;28;20189;-67
2022/10/23 06:45:32;;;;;;;3.07;2.20;;;8.50;99.90;;;;;;4179160;28;20194;-67
2022/10/23 06:47:33;;;;;;;2.17;1.93;;;8.50;99.90;;;;;;4179235;28;20195;-67
2022/10/23 06:49:33;;;;;;;3.40;2.00;;;8.60;99.90;;;;;;4179039;28;20226;-67
2022/10/23 06:51:34;;;;;;;4.47;2.70;;;8.60;99.90;;;;;;4178674;28;20875;-67
2022/10/23 06:53:35;;;;;;;9.77;5.47;;;8.70;99.90;;;;;;4179158;28;20241;-67
2022/10/23 06:55:38;;;;;;;7.00;4.90;;;8.80;99.90;;;;;;4178973;28;20527;-66
2022/10/23 06:57:39;;;;;;;6.53;4.80;;;8.90;99.90;;;;;;4179213;28;20235;-67
2022/10/23 06:59:39;;;;;;;5.50;3.10;;;8.90;99.90;;;;;;4178828;28;20184;-66
2022/10/23 07:01:40;;;;;;;10.70;4.83;;;9.00;99.90;;;;;;4178258;28;20226;-66
2022/10/23 07:03:41;;;;;;;5.53;3.70;;;9.10;99.90;;;;;;4178734;28;20184;-66
2022/10/23 07:05:43;;;;;;;12.77;8.73;;;9.00;99.90;;;;;;4178758;28;20179;-67
2022/10/23 07:07:44;;;;;;;8.63;5.73;;;9.00;99.90;;;;;;4178855;28;20262;-67
2022/10/23 07:09:44;;;;;;;5.07;3.50;;;8.90;99.90;;;;;;4178779;28;20194;-66
2022/10/23 07:11:45;;;;;;;6.77;4.97;;;8.90;99.90;;;;;;4178046;28;20221;-66
2022/10/23 07:13:45;;;;;;;5.90;3.50;;;8.90;99.90;;;;;;4178651;28;20207;-66
2022/10/23 07:15:46;;;;;;;2.87;1.90;;;9.00;99.90;;;;;;4178790;28;20184;-66
2022/10/23 07:17:46;;;;;;;10.73;6.90;;;9.30;99.90;;;;;;4178673;28;20287;-67
2022/10/23 07:19:47;;;;;;;15.43;10.13;;;9.40;99.90;;;;;;4181158;28;20180;-66
2022/10/23 07:21:47;;;;;;;13.57;8.57;;;9.50;99.90;;;;;;4177942;28;20694;-66
2022/10/23 07:23:48;;;;;;;11.93;8.50;;;9.40;99.90;;;;;;4178587;28;20176;-66
2022/10/23 07:25:48;;;;;;;10.53;7.47;;;9.50;99.90;;;;;;4178821;28;20547;-67
2022/10/23 07:27:49;;;;;;;9.17;6.37;;;9.60;99.90;;;;;;4178756;28;20232;-66
2022/10/23 07:29:51;;;;;;;9.07;5.97;;;9.80;99.90;;;;;;4178332;28;20180;-66
2022/10/23 07:31:51;;;;;;;10.43;5.63;;;9.90;99.90;;;;;;4177909;28;20242;-66
2022/10/23 07:33:52;;;;;;;8.63;4.90;;;10.00;99.90;;;;;;4188262;28;20179;-66
2022/10/23 07:35:53;;;;;;;6.43;4.50;;;10.10;99.90;;;;;;4194835;28;20175;-67
2022/10/23 07:37:53;;;;;;;4.83;3.60;;;10.30;99.90;;;;;;4195440;28;20540;-67
2022/10/23 07:39:54;;;;;;;5.90;4.40;;;10.60;99.90;;;;;;4194545;28;20236;-67
2022/10/23 07:41:54;;;;;;;5.60;3.17;;;10.80;99.90;;;;;;4194242;28;20723;-67
2022/10/23 07:43:55;;;;;;;7.40;3.80;;;11.00;99.90;;;;;;4194874;28;20240;-67
2022/10/23 07:45:55;;;;;;;6.90;4.80;;;11.10;99.90;;;;;;4194806;28;20271;-66
2022/10/23 07:47:56;;;;;;;6.83;4.60;;;11.10;99.90;;;;;;4195000;28;20171;-66
2022/10/23 07:49:56;;;;;;;7.50;4.97;;;11.10;99.90;;;;;;4195026;28;20171;-66
2022/10/23 07:51:57;;;;;;;7.03;5.23;;;11.00;99.90;;;;;;4197688;28;20546;-66
2022/10/23 07:53:58;;;;;;;6.17;4.33;;;11.10;99.90;;;;;;4198424;28;20548;-66
2022/10/23 07:56:00;;;;;;;6.97;4.60;;;11.20;99.90;;;;;;4197950;28;20176;-66
2022/10/23 07:58:01;;;;;;;6.87;3.90;;;11.20;99.90;;;;;;4198194;28;20232;-66
2022/10/23 08:00:02;;;;;;;6.70;3.20;;;11.20;99.90;;;;;;4197909;28;20697;-66
2022/10/23 08:02:03;;;;;;;6.13;3.13;;;11.30;99.90;;;;;;4197431;28;20172;-66
2022/10/23 08:04:04;;;;;;;4.43;3.10;;;11.30;99.90;;;;;;4198076;28;20182;-66
2022/10/23 08:06:05;;;;;;;3.37;2.50;;;11.40;99.90;;;;;;4198088;28;20188;-66
2022/10/23 08:08:06;;;;;;;2.37;1.80;;;11.40;99.90;;;;;;4198143;28;20270;-66
2022/10/23 08:10:07;;;;;;;3.47;1.60;;;11.40;99.90;;;;;;4197904;28;20862;-66
2022/10/23 08:12:08;;;;;;;5.57;2.57;;;11.50;99.90;;;;;;4197322;28;20619;-66
2022/10/23 08:14:09;;;;;;;9.40;5.50;;;11.70;99.90;;;;;;4198088;28;20182;-67
2022/10/23 08:16:10;;;;;;;5.83;3.60;;;11.80;99.90;;;;;;4198017;28;20164;-66
2022/10/23 08:18:10;;;;;;;8.07;3.73;;;12.00;99.90;;;;;;4198076;28;20420;-66
2022/10/23 08:20:12;;;;;;;3.80;2.53;;;12.10;99.90;;;;;;4197408;28;20245;-66
2022/10/23 08:22:13;;;;;;;3.37;2.00;;;12.20;99.90;;;;;;4197920;28;20236;-66
2022/10/23 08:24:14;;;;;;;4.07;1.33;;;12.40;99.90;;;;;;4197863;28;20948;-66
2022/10/23 08:26:14;;;;;;;5.63;1.87;;;12.50;99.90;;;;;;4197848;28;20196;-66
2022/10/23 08:28:15;;;;;;;3.27;2.43;;;12.80;99.90;;;;;;4197746;28;20213;-66
2022/10/23 08:30:16;;;;;;;5.40;2.70;;;13.00;99.90;;;;;;4196925;28;20195;-66
2022/10/23 08:32:16;;;;;;;5.60;2.90;;;13.20;99.90;;;;;;4197782;28;20183;-66
2022/10/23 08:34:17;;;;;;;4.47;1.87;;;13.50;99.90;;;;;;4197653;28;20179;-66
2022/10/23 08:36:21;;;;;;;2.83;1.60;;;13.60;99.90;;;;;;4197586;28;20724;-66
2022/10/23 08:38:22;;;;;;;3.17;1.43;;;13.80;99.90;;;;;;4197410;28;20215;-66
2022/10/23 08:40:24;;;;;;;2.40;0.90;;;14.00;99.90;;;;;;4196947;28;20724;-66
2022/10/23 08:42:26;;;;;;;1.33;0.80;;;14.30;99.90;;;;;;4197705;28;20187;-66
2022/10/23 08:44:47;;;;;;;1.43;0.70;;;14.80;99.90;;;;;;4197592;28;20211;-66
2022/10/23 08:47:06;;;;;;;0.67;0.67;;;15.10;99.80;;;;;;4197806;28;20203;-66
2022/10/23 08:49:42;;;;;;;0.93;0.60;;;15.50;98.20;;;;;;4197444;28;20787;-66
2022/10/23 08:51:51;;;;;;;0.70;0.60;;;15.80;98.00;;;;;;4196259;28;20298;-66
2022/10/23 08:53:58;;;;;;;0.83;0.60;;;16.30;92.70;;;;;;4197684;28;20642;-67
2022/10/23 08:56:10;;;;;;;0.70;0.70;;;16.60;93.80;;;;;;4197260;28;20175;-66
2022/10/23 08:58:39;;;;;;;0.70;0.60;;;16.80;93.70;;;;;;4197570;28;20182;-67
2022/10/23 09:00:41;;;;;;;2.03;0.60;;;17.20;83.80;;;;;;4196787;28;20549;-67
2022/10/23 09:02:45;;;;;;;0.80;0.70;;;17.20;91.30;;;;;;4196195;28;20258;-66
2022/10/23 09:04:49;;;;;;;1.07;0.50;;;17.40;89.00;;;;;;4197410;28;20654;-67
2022/10/23 09:07:25;;;;;;;0.50;0.50;;;17.70;82.30;;;;;;4197127;28;20196;-67
2022/10/23 09:10:06;;;;;;;0.73;0.50;;;17.90;82.00;;;;;;4197224;28;20183;-67
2022/10/23 09:12:24;;;;;;;0.80;0.67;;;18.10;83.90;;;;;;4195060;28;20190;-67
2022/10/23 09:14:52;;;;;;;0.83;0.80;;;18.40;80.70;;;;;;4197228;28;20179;-67
2022/10/23 09:17:20;;;;;;;1.60;0.60;;;18.30;87.90;;;;;;4195709;28;20191;-67
2022/10/23 09:19:25;;;;;;;1.10;0.90;;;18.40;80.40;;;;;;4197167;28;20222;-67
2022/10/23 09:21:27;;;;;;;0.67;0.60;;;18.50;78.80;;;;;;4196447;28;20215;-67
2022/10/23 09:23:28;;;;;;;0.80;0.73;;;18.80;73.50;;;;;;4197103;28;20190;-67
2022/10/23 09:25:36;;;;;;;0.90;0.80;;;19.20;75.80;;;;;;4189302;28;20177;-67
2022/10/23 09:27:37;;;;;;;2.63;0.70;;;19.40;70.00;;;;;;4179025;28;20706;-67
2022/10/23 09:29:52;;;;;;;2.30;0.80;;;19.30;71.30;;;;;;4180141;28;20188;-67
2022/10/23 09:31:59;;;;;;;2.60;0.80;;;19.60;71.60;;;;;;4179529;28;20990;-67
2022/10/23 09:34:00;;;;;;;0.80;0.80;;;19.40;67.70;;;;;;4180080;28;20183;-67
2022/10/23 09:36:04;;;;;;;2.47;0.80;;;19.40;70.20;;;;;;4180295;28;20188;-67
2022/10/23 09:38:27;;;;;;;2.20;0.70;;;19.40;70.80;;;;;;4180018;28;20659;-67
2022/10/23 09:40:37;;;;;;;1.60;0.70;;;19.40;67.90;;;;;;4180891;28;20223;-67
2022/10/23 09:43:02;;;;;;;1.40;0.87;;;19.30;69.10;;;;;;4195265;28;20179;-67
2022/10/23 09:45:23;;;;;;;1.43;0.80;;;19.10;70.90;;;;;;4196669;28;20256;-67
2022/10/23 09:47:25;;;;;;;0.83;0.60;;;19.30;72.00;;;;;;4196551;28;20191;-66
2022/10/23 09:49:33;;;;;;;1.23;0.80;;;19.30;70.30;;;;;;4196489;28;20176;-66
2022/10/23 09:51:34;;;;;;;2.00;0.70;;;19.60;69.40;;;;;;4178870;28;20191;-66
2022/10/23 09:53:39;;;;;;;2.70;0.70;;;19.60;69.10;;;;;;4177728;28;20747;-66
2022/10/23 09:55:40;;;;;;;2.83;0.80;;;19.60;68.00;;;;;;4194926;28;20318;-67
2022/10/23 09:57:43;;;;;;;0.70;0.70;;;19.60;65.50;;;;;;4179714;28;20246;-67
2022/10/23 10:00:04;;;;;;;1.10;0.67;;;19.90;65.10;;;;;;4194685;28;20172;-67
2022/10/23 10:02:26;;;;;;;1.87;0.70;;;19.70;64.10;;;;;;4203489;28;20197;-67
2022/10/23 10:04:34;;;;;;;0.83;0.70;;;19.80;65.00;;;;;;4213016;28;20677;-67
2022/10/23 10:06:35;;;;;;;2.50;0.80;;;20.00;63.80;;;;;;4211855;28;20199;-67
2022/10/23 10:08:48;;;;;;;0.77;0.70;;;20.20;62.00;;;;;;4213088;28;20171;-66
2022/10/23 10:11:04;;;;;;;3.20;0.60;;;20.10;65.10;;;;;;4211037;28;20850;-66
2022/10/23 10:13:32;;;;;;;0.83;0.70;;;19.90;63.60;;;;;;4211039;28;20601;-67
2022/10/23 10:15:59;;;;;;;1.37;0.60;;;19.90;63.60;;;;;;4212881;28;20189;-66
2022/10/23 10:18:27;;;;;;;0.80;0.73;;;19.80;62.60;;;;;;4211932;28;20175;-66
2022/10/23 10:20:55;;;;;;;0.80;0.77;;;19.90;65.10;;;;;;4210841;28;20748;-66
2022/10/23 10:23:27;;;;;;;0.70;0.70;;;19.50;68.00;;;;;;4212661;28;20205;-66
2022/10/23 10:25:36;;;;;;;0.80;0.70;;;19.20;72.90;;;;;;4212865;28;20178;-66
2022/10/23 10:28:22;;;;;;;0.83;0.70;;;19.30;69.30;;;;;;4211621;28;20210;-66
2022/10/23 10:30:24;;;;;;;1.60;0.70;;;19.50;68.00;;;;;;4210829;28;20223;-68
2022/10/23 10:33:26;;;;;;;1.17;0.80;;;19.60;65.90;;;;;;4212546;28;20175;-67
2022/10/23 10:36:02;;;;;;;0.70;0.70;;;19.40;67.20;;;;;;4193770;28;20175;-66
2022/10/23 10:38:21;;;;;;;0.80;0.80;;;19.30;68.60;;;;;;4210314;28;20186;-66
2022/10/23 10:40:50;;;;;;;1.13;0.80;;;19.80;65.50;;;;;;4210524;28;20222;-66
2022/10/23 10:43:12;;;;;;;1.53;0.80;;;19.80;66.50;;;;;;4211242;28;20540;-66
2022/10/23 10:45:48;;;;;;;1.43;0.70;;;20.20;66.40;;;;;;4211393;28;20171;-66
2022/10/23 10:47:59;;;;;;;0.80;0.80;;;20.50;65.00;;;;;;4212398;28;20198;-66
2022/10/23 10:50:26;;;;;;;0.90;0.70;;;20.80;61.70;;;;;;4211128;28;20179;-66
2022/10/23 10:52:47;;;;;;;0.87;0.70;;;21.00;61.50;;;;;;4183927;28;20187;-71
2022/10/23 10:55:01;;;;;;;0.60;0.60;;;21.10;61.10;;;;;;4208491;28;20183;-66
2022/10/23 10:57:27;;;;;;;3.93;0.70;;;21.50;59.00;;;;;;4194856;28;20286;-67
2022/10/23 10:59:35;;;;;;;0.77;0.63;;;21.90;56.30;;;;;;4207162;28;20179;-67